sensor_id;sensor_type;location;lat;lon;timestamp;P1;durP1;ratioP1;P2;durP2;ratioP2
7605;SDS011;3844;53.360;9.738;2022-10-18T00:01:27;26.40;;;9.88;;
7605;SDS011;3844;53.360;9.738;2022-10-18T00:03:28;18.58;;;9.00;;
7605;SDS011;3844;53.360;9.738;2022-10-18T00:05:29;18.45;;;8.63;;
7605;SDS011;3844;53.360;9.738;2022-10-18T00:07:29;30.65;;;9.65;;
7605;SDS011;3844;53.360;9.738;2022-10-18T00:09:30;25.38;;;12.10;;
7605;SDS011;3844;53.360;9.738;2022-10-18T00:11:31;26.40;;;12.48;;
7605;SDS011;3844;53.360;9.738;2022-10-18T00:13:31;23.88;;;10.38;;
7605;SDS011;3844;53.360;9.738;2022-10-18T00:15:32;25.77;;;11.80;;
7605;SDS011;3844;53.360;9.738;2022-10-18T00:17:33;41.97;;;11.52;;
7605;SDS011;3844;53.360;9.738;2022-10-18T00:19:35;27.15;;;12.98;;
7605;SDS011;3844;53.360;9.738;2022-10-18T00:21:35;24.45;;;11.75;;
7605;SDS011;3844;53.360;9.738;2022-10-18T00:23:36;19.85;;;10.02;;
7605;SDS011;3844;53.360;9.738;2022-10-18T00:25:37;23.00;;;11.05;;
7605;SDS011;3844;53.360;9.738;2022-10-18T00:27:38;22.13;;;10.98;;
7605;SDS011;3844;53.360;9.738;2022-10-18T00:29:38;26.50;;;10.68;;
7605;SDS011;3844;53.360;9.738;2022-10-18T00:31:39;27.60;;;10.80;;
7605;SDS011;3844;53.360;9.738;2022-10-18T00:33:42;20.02;;;9.80;;
7605;SDS011;3844;53.360;9.738;2022-10-18T00:35:44;23.23;;;9.93;;
7605;SDS011;3844;53.360;9.738;2022-10-18T00:37:44;20.23;;;10.38;;
7605;SDS011;3844;53.360;9.738;2022-10-18T00:39:45;32.85;;;12.60;;
7605;SDS011;3844;53.360;9.738;2022-10-18T00:41:46;33.67;;;13.40;;
7605;SDS011;3844;53.360;9.738;2022-10-18T00:46:10;34.58;;;13.60;;
7605;SDS011;3844;53.360;9.738;2022-10-18T00:48:12;28.33;;;12.75;;
7605;SDS011;3844;53.360;9.738;2022-10-18T00:50:14;23.83;;;12.25;;
7605;SDS011;3844;53.360;9.738;2022-10-18T00:52:21;23.55;;;10.95;;
7605;SDS011;3844;53.360;9.738;2022-10-18T00:54:28;21.33;;;10.80;;
7605;SDS011;3844;53.360;9.738;2022-10-18T00:56:31;59.53;;;13.75;;
7605;SDS011;3844;53.360;9.738;2022-10-18T00:58:33;29.58;;;12.52;;
7605;SDS011;3844;53.360;9.738;2022-10-18T01:00:34;25.45;;;11.73;;
7605;SDS011;3844;53.360;9.738;2022-10-18T01:02:39;22.20;;;10.38;;
7605;SDS011;3844;53.360;9.738;2022-10-18T01:04:41;22.23;;;10.50;;
7605;SDS011;3844;53.360;9.738;2022-10-18T01:06:50;23.38;;;10.93;;
7605;SDS011;3844;53.360;9.738;2022-10-18T01:11:25;41.53;;;15.77;;
7605;SDS011;3844;53.360;9.738;2022-10-18T01:14:08;42.72;;;12.80;;
7605;SDS011;3844;53.360;9.738;2022-10-18T01:16:12;26.17;;;11.80;;
7605;SDS011;3844;53.360;9.738;2022-10-18T01:18:28;31.55;;;13.07;;
7605;SDS011;3844;53.360;9.738;2022-10-18T01:21:08;26.58;;;12.88;;
7605;SDS011;3844;53.360;9.738;2022-10-18T01:23:30;45.45;;;12.23;;
7605;SDS011;3844;53.360;9.738;2022-10-18T01:30:32;30.73;;;10.77;;
7605;SDS011;3844;53.360;9.738;2022-10-18T01:32:36;25.38;;;10.48;;
7605;SDS011;3844;53.360;9.738;2022-10-18T01:34:42;41.22;;;9.93;;
7605;SDS011;3844;53.360;9.738;2022-10-18T01:36:47;97.82;;;11.10;;
7605;SDS011;3844;53.360;9.738;2022-10-18T01:38:51;25.55;;;10.23;;
7605;SDS011;3844;53.360;9.738;2022-10-18T01:40:54;22.80;;;10.18;;
7605;SDS011;3844;53.360;9.738;2022-10-18T01:42:56;49.45;;;21.33;;
7605;SDS011;3844;53.360;9.738;2022-10-18T01:44:57;44.55;;;18.58;;
7605;SDS011;3844;53.360;9.738;2022-10-18T01:47:00;39.25;;;14.63;;
7605;SDS011;3844;53.360;9.738;2022-10-18T01:49:02;47.38;;;13.15;;
7605;SDS011;3844;53.360;9.738;2022-10-18T01:51:04;41.30;;;12.40;;
7605;SDS011;3844;53.360;9.738;2022-10-18T01:53:05;58.33;;;12.32;;
7605;SDS011;3844;53.360;9.738;2022-10-18T01:55:05;42.90;;;17.73;;
7605;SDS011;3844;53.360;9.738;2022-10-18T02:01:51;25.55;;;11.70;;
7605;SDS011;3844;53.360;9.738;2022-10-18T02:04:12;30.00;;;11.63;;
7605;SDS011;3844;53.360;9.738;2022-10-18T02:06:30;47.25;;;12.10;;
7605;SDS011;3844;53.360;9.738;2022-10-18T02:08:38;21.42;;;10.90;;
7605;SDS011;3844;53.360;9.738;2022-10-18T02:10:47;20.73;;;10.52;;
7605;SDS011;3844;53.360;9.738;2022-10-18T02:12:51;20.77;;;10.38;;
7605;SDS011;3844;53.360;9.738;2022-10-18T02:16:57;23.33;;;11.27;;
7605;SDS011;3844;53.360;9.738;2022-10-18T02:19:45;25.73;;;9.95;;
7605;SDS011;3844;53.360;9.738;2022-10-18T02:21:28;24.63;;;10.70;;
7605;SDS011;3844;53.360;9.738;2022-10-18T02:23:30;47.05;;;12.80;;
7605;SDS011;3844;53.360;9.738;2022-10-18T02:25:33;37.60;;;11.70;;
7605;SDS011;3844;53.360;9.738;2022-10-18T02:27:34;33.95;;;12.82;;
7605;SDS011;3844;53.360;9.738;2022-10-18T02:29:36;25.65;;;11.25;;
7605;SDS011;3844;53.360;9.738;2022-10-18T02:36:02;25.10;;;11.73;;
7605;SDS011;3844;53.360;9.738;2022-10-18T02:38:13;30.10;;;13.73;;
7605;SDS011;3844;53.360;9.738;2022-10-18T02:40:17;26.42;;;11.82;;
7605;SDS011;3844;53.360;9.738;2022-10-18T02:42:18;28.20;;;12.68;;
7605;SDS011;3844;53.360;9.738;2022-10-18T02:44:18;31.42;;;13.65;;
7605;SDS011;3844;53.360;9.738;2022-10-18T02:46:19;31.70;;;13.45;;
7605;SDS011;3844;53.360;9.738;2022-10-18T02:48:20;31.58;;;14.43;;
7605;SDS011;3844;53.360;9.738;2022-10-18T02:50:21;31.02;;;14.15;;
7605;SDS011;3844;53.360;9.738;2022-10-18T02:52:22;31.55;;;13.90;;
7605;SDS011;3844;53.360;9.738;2022-10-18T02:54:22;52.33;;;20.02;;
7605;SDS011;3844;53.360;9.738;2022-10-18T02:56:23;50.30;;;20.52;;
7605;SDS011;3844;53.360;9.738;2022-10-18T02:58:24;50.40;;;19.80;;
7605;SDS011;3844;53.360;9.738;2022-10-18T03:00:25;56.03;;;22.63;;
7605;SDS011;3844;53.360;9.738;2022-10-18T03:02:25;78.85;;;27.52;;
7605;SDS011;3844;53.360;9.738;2022-10-18T03:04:26;76.57;;;26.38;;
7605;SDS011;3844;53.360;9.738;2022-10-18T03:06:27;65.05;;;23.30;;
7605;SDS011;3844;53.360;9.738;2022-10-18T03:08:28;60.67;;;22.95;;
7605;SDS011;3844;53.360;9.738;2022-10-18T03:10:28;64.70;;;23.85;;
7605;SDS011;3844;53.360;9.738;2022-10-18T03:12:29;64.63;;;23.52;;
7605;SDS011;3844;53.360;9.738;2022-10-18T03:14:30;66.80;;;24.70;;
7605;SDS011;3844;53.360;9.738;2022-10-18T03:16:30;64.35;;;23.63;;
7605;SDS011;3844;53.360;9.738;2022-10-18T03:18:32;96.30;;;31.50;;
7605;SDS011;3844;53.360;9.738;2022-10-18T03:20:33;82.40;;;28.42;;
7605;SDS011;3844;53.360;9.738;2022-10-18T03:22:34;103.22;;;32.33;;
7605;SDS011;3844;53.360;9.738;2022-10-18T03:24:35;79.68;;;26.05;;
7605;SDS011;3844;53.360;9.738;2022-10-18T03:26:35;62.50;;;24.23;;
7605;SDS011;3844;53.360;9.738;2022-10-18T03:28:37;92.55;;;31.23;;
7605;SDS011;3844;53.360;9.738;2022-10-18T03:30:37;77.93;;;27.70;;
7605;SDS011;3844;53.360;9.738;2022-10-18T03:32:38;83.38;;;29.25;;
7605;SDS011;3844;53.360;9.738;2022-10-18T03:34:39;91.50;;;30.20;;
7605;SDS011;3844;53.360;9.738;2022-10-18T03:36:40;77.07;;;27.55;;
7605;SDS011;3844;53.360;9.738;2022-10-18T03:38:41;72.22;;;25.50;;
7605;SDS011;3844;53.360;9.738;2022-10-18T03:40:41;65.93;;;23.65;;
7605;SDS011;3844;53.360;9.738;2022-10-18T03:42:42;64.05;;;23.63;;
7605;SDS011;3844;53.360;9.738;2022-10-18T03:44:43;60.85;;;23.63;;
7605;SDS011;3844;53.360;9.738;2022-10-18T03:46:43;75.68;;;27.90;;
7605;SDS011;3844;53.360;9.738;2022-10-18T03:48:44;70.47;;;25.83;;
7605;SDS011;3844;53.360;9.738;2022-10-18T03:50:45;72.53;;;25.45;;
7605;SDS011;3844;53.360;9.738;2022-10-18T03:52:45;77.97;;;27.98;;
7605;SDS011;3844;53.360;9.738;2022-10-18T03:54:46;62.65;;;24.92;;
7605;SDS011;3844;53.360;9.738;2022-10-18T03:56:47;68.20;;;26.13;;
7605;SDS011;3844;53.360;9.738;2022-10-18T03:58:48;71.45;;;26.45;;
7605;SDS011;3844;53.360;9.738;2022-10-18T04:00:49;67.82;;;24.92;;
7605;SDS011;3844;53.360;9.738;2022-10-18T04:02:50;68.18;;;25.45;;
7605;SDS011;3844;53.360;9.738;2022-10-18T04:04:51;70.03;;;25.77;;
7605;SDS011;3844;53.360;9.738;2022-10-18T04:06:52;73.10;;;25.58;;
7605;SDS011;3844;53.360;9.738;2022-10-18T04:08:53;60.60;;;23.70;;
7605;SDS011;3844;53.360;9.738;2022-10-18T04:10:54;73.50;;;26.75;;
7605;SDS011;3844;53.360;9.738;2022-10-18T04:12:55;58.13;;;22.15;;
7605;SDS011;3844;53.360;9.738;2022-10-18T04:14:55;69.53;;;26.13;;
7605;SDS011;3844;53.360;9.738;2022-10-18T04:16:56;66.65;;;26.70;;
7605;SDS011;3844;53.360;9.738;2022-10-18T04:18:57;72.20;;;26.40;;
7605;SDS011;3844;53.360;9.738;2022-10-18T04:20:57;62.75;;;24.52;;
7605;SDS011;3844;53.360;9.738;2022-10-18T04:22:58;67.20;;;25.58;;
7605;SDS011;3844;53.360;9.738;2022-10-18T04:24:59;68.38;;;25.70;;
7605;SDS011;3844;53.360;9.738;2022-10-18T04:27:00;58.47;;;23.55;;
7605;SDS011;3844;53.360;9.738;2022-10-18T04:29:00;59.72;;;22.73;;
7605;SDS011;3844;53.360;9.738;2022-10-18T04:31:01;54.83;;;22.10;;
7605;SDS011;3844;53.360;9.738;2022-10-18T04:33:02;45.58;;;19.70;;
7605;SDS011;3844;53.360;9.738;2022-10-18T04:35:03;53.67;;;20.92;;
7605;SDS011;3844;53.360;9.738;2022-10-18T04:37:04;44.25;;;19.10;;
7605;SDS011;3844;53.360;9.738;2022-10-18T04:39:05;54.42;;;21.55;;
7605;SDS011;3844;53.360;9.738;2022-10-18T04:41:06;49.75;;;20.63;;
7605;SDS011;3844;53.360;9.738;2022-10-18T04:43:07;49.28;;;20.85;;
7605;SDS011;3844;53.360;9.738;2022-10-18T04:45:07;79.43;;;27.20;;
7605;SDS011;3844;53.360;9.738;2022-10-18T04:47:08;60.72;;;24.35;;
7605;SDS011;3844;53.360;9.738;2022-10-18T04:49:09;60.17;;;22.48;;
7605;SDS011;3844;53.360;9.738;2022-10-18T04:51:10;78.40;;;28.35;;
7605;SDS011;3844;53.360;9.738;2022-10-18T04:53:10;58.15;;;23.75;;
7605;SDS011;3844;53.360;9.738;2022-10-18T04:55:11;65.53;;;24.58;;
7605;SDS011;3844;53.360;9.738;2022-10-18T04:57:12;53.08;;;22.13;;
7605;SDS011;3844;53.360;9.738;2022-10-18T04:59:13;59.38;;;23.20;;
7605;SDS011;3844;53.360;9.738;2022-10-18T05:01:13;52.50;;;21.90;;
7605;SDS011;3844;53.360;9.738;2022-10-18T05:03:14;55.30;;;22.55;;
7605;SDS011;3844;53.360;9.738;2022-10-18T05:05:16;49.70;;;20.55;;
7605;SDS011;3844;53.360;9.738;2022-10-18T05:07:16;56.35;;;23.10;;
7605;SDS011;3844;53.360;9.738;2022-10-18T05:09:17;85.85;;;29.10;;
7605;SDS011;3844;53.360;9.738;2022-10-18T05:11:18;81.32;;;29.48;;
7605;SDS011;3844;53.360;9.738;2022-10-18T05:13:19;86.68;;;30.30;;
7605;SDS011;3844;53.360;9.738;2022-10-18T05:15:19;75.30;;;27.88;;
7605;SDS011;3844;53.360;9.738;2022-10-18T05:17:20;71.80;;;25.85;;
7605;SDS011;3844;53.360;9.738;2022-10-18T05:19:21;79.40;;;27.23;;
7605;SDS011;3844;53.360;9.738;2022-10-18T05:21:22;72.68;;;26.52;;
7605;SDS011;3844;53.360;9.738;2022-10-18T05:23:23;66.40;;;24.55;;
7605;SDS011;3844;53.360;9.738;2022-10-18T05:25:24;59.55;;;22.08;;
7605;SDS011;3844;53.360;9.738;2022-10-18T05:27:24;65.43;;;25.42;;
7605;SDS011;3844;53.360;9.738;2022-10-18T05:29:25;75.10;;;26.88;;
7605;SDS011;3844;53.360;9.738;2022-10-18T05:31:26;64.45;;;24.65;;
7605;SDS011;3844;53.360;9.738;2022-10-18T05:33:27;80.55;;;28.30;;
7605;SDS011;3844;53.360;9.738;2022-10-18T05:35:27;75.82;;;26.02;;
7605;SDS011;3844;53.360;9.738;2022-10-18T05:37:28;79.30;;;27.63;;
7605;SDS011;3844;53.360;9.738;2022-10-18T05:39:29;74.28;;;26.40;;
7605;SDS011;3844;53.360;9.738;2022-10-18T05:41:30;70.50;;;25.90;;
7605;SDS011;3844;53.360;9.738;2022-10-18T05:43:31;69.88;;;25.20;;
7605;SDS011;3844;53.360;9.738;2022-10-18T05:45:32;57.83;;;22.52;;
7605;SDS011;3844;53.360;9.738;2022-10-18T05:47:32;52.67;;;21.00;;
7605;SDS011;3844;53.360;9.738;2022-10-18T05:49:33;51.65;;;20.50;;
7605;SDS011;3844;53.360;9.738;2022-10-18T05:51:35;56.78;;;22.05;;
7605;SDS011;3844;53.360;9.738;2022-10-18T05:53:35;48.30;;;20.23;;
7605;SDS011;3844;53.360;9.738;2022-10-18T05:55:36;67.32;;;24.67;;
7605;SDS011;3844;53.360;9.738;2022-10-18T05:57:37;78.28;;;26.13;;
7605;SDS011;3844;53.360;9.738;2022-10-18T05:59:37;75.05;;;26.52;;
7605;SDS011;3844;53.360;9.738;2022-10-18T06:01:38;63.72;;;24.55;;
7605;SDS011;3844;53.360;9.738;2022-10-18T06:03:40;57.20;;;22.67;;
7605;SDS011;3844;53.360;9.738;2022-10-18T06:05:41;64.30;;;23.52;;
7605;SDS011;3844;53.360;9.738;2022-10-18T06:07:41;61.75;;;23.92;;
7605;SDS011;3844;53.360;9.738;2022-10-18T06:09:42;50.65;;;19.40;;
7605;SDS011;3844;53.360;9.738;2022-10-18T06:11:43;43.13;;;17.25;;
7605;SDS011;3844;53.360;9.738;2022-10-18T06:13:45;49.03;;;18.95;;
7605;SDS011;3844;53.360;9.738;2022-10-18T06:15:47;44.97;;;18.33;;
7605;SDS011;3844;53.360;9.738;2022-10-18T06:17:47;41.50;;;16.40;;
7605;SDS011;3844;53.360;9.738;2022-10-18T06:19:48;52.10;;;20.42;;
7605;SDS011;3844;53.360;9.738;2022-10-18T06:21:49;63.08;;;24.63;;
7605;SDS011;3844;53.360;9.738;2022-10-18T06:23:56;60.05;;;22.55;;
7605;SDS011;3844;53.360;9.738;2022-10-18T06:25:59;56.90;;;22.30;;
7605;SDS011;3844;53.360;9.738;2022-10-18T06:28:00;51.97;;;20.38;;
7605;SDS011;3844;53.360;9.738;2022-10-18T06:30:02;64.65;;;22.85;;
7605;SDS011;3844;53.360;9.738;2022-10-18T06:32:04;60.60;;;22.08;;
7605;SDS011;3844;53.360;9.738;2022-10-18T06:34:05;53.88;;;20.25;;
7605;SDS011;3844;53.360;9.738;2022-10-18T06:36:10;55.50;;;20.42;;
7605;SDS011;3844;53.360;9.738;2022-10-18T06:38:15;50.42;;;20.02;;
7605;SDS011;3844;53.360;9.738;2022-10-18T06:40:16;63.97;;;22.20;;
7605;SDS011;3844;53.360;9.738;2022-10-18T06:42:16;47.60;;;19.40;;
7605;SDS011;3844;53.360;9.738;2022-10-18T06:44:17;65.38;;;23.55;;
7605;SDS011;3844;53.360;9.738;2022-10-18T06:46:18;47.92;;;19.70;;
7605;SDS011;3844;53.360;9.738;2022-10-18T06:48:19;60.22;;;22.38;;
7605;SDS011;3844;53.360;9.738;2022-10-18T06:50:20;58.80;;;21.65;;
7605;SDS011;3844;53.360;9.738;2022-10-18T06:52:21;51.72;;;20.73;;
7605;SDS011;3844;53.360;9.738;2022-10-18T06:54:24;45.20;;;16.92;;
7605;SDS011;3844;53.360;9.738;2022-10-18T06:56:25;59.03;;;21.75;;
7605;SDS011;3844;53.360;9.738;2022-10-18T06:58:26;54.00;;;20.77;;
7605;SDS011;3844;53.360;9.738;2022-10-18T07:00:27;57.33;;;21.08;;
7605;SDS011;3844;53.360;9.738;2022-10-18T07:02:28;51.90;;;20.40;;
7605;SDS011;3844;53.360;9.738;2022-10-18T07:04:28;46.17;;;18.83;;
7605;SDS011;3844;53.360;9.738;2022-10-18T07:06:29;52.28;;;20.23;;
7605;SDS011;3844;53.360;9.738;2022-10-18T07:08:30;40.50;;;17.25;;
7605;SDS011;3844;53.360;9.738;2022-10-18T07:10:31;38.05;;;16.60;;
7605;SDS011;3844;53.360;9.738;2022-10-18T07:12:31;49.33;;;20.08;;
7605;SDS011;3844;53.360;9.738;2022-10-18T07:14:32;42.45;;;17.42;;
7605;SDS011;3844;53.360;9.738;2022-10-18T07:16:33;44.80;;;18.05;;
7605;SDS011;3844;53.360;9.738;2022-10-18T07:18:34;43.70;;;18.95;;
7605;SDS011;3844;53.360;9.738;2022-10-18T07:20:36;44.50;;;18.55;;
7605;SDS011;3844;53.360;9.738;2022-10-18T07:22:37;41.28;;;18.13;;
7605;SDS011;3844;53.360;9.738;2022-10-18T07:24:38;37.85;;;16.55;;
7605;SDS011;3844;53.360;9.738;2022-10-18T07:26:39;37.97;;;15.60;;
7605;SDS011;3844;53.360;9.738;2022-10-18T07:28:41;46.08;;;18.40;;
7605;SDS011;3844;53.360;9.738;2022-10-18T07:30:43;46.00;;;18.00;;
7605;SDS011;3844;53.360;9.738;2022-10-18T07:32:44;37.88;;;16.38;;
7605;SDS011;3844;53.360;9.738;2022-10-18T07:34:44;35.20;;;16.23;;
7605;SDS011;3844;53.360;9.738;2022-10-18T07:36:45;33.75;;;15.63;;
7605;SDS011;3844;53.360;9.738;2022-10-18T07:38:47;36.83;;;15.98;;
7605;SDS011;3844;53.360;9.738;2022-10-18T07:40:54;41.75;;;18.10;;
7605;SDS011;3844;53.360;9.738;2022-10-18T07:42:56;35.20;;;15.57;;
7605;SDS011;3844;53.360;9.738;2022-10-18T07:44:57;33.17;;;14.98;;
7605;SDS011;3844;53.360;9.738;2022-10-18T07:46:58;33.75;;;16.45;;
7605;SDS011;3844;53.360;9.738;2022-10-18T07:48:59;39.00;;;16.85;;
7605;SDS011;3844;53.360;9.738;2022-10-18T07:50:59;42.17;;;17.85;;
7605;SDS011;3844;53.360;9.738;2022-10-18T07:53:01;39.30;;;17.83;;
7605;SDS011;3844;53.360;9.738;2022-10-18T07:55:01;39.72;;;17.17;;
7605;SDS011;3844;53.360;9.738;2022-10-18T07:57:03;39.42;;;16.90;;
7605;SDS011;3844;53.360;9.738;2022-10-18T07:59:04;34.65;;;15.88;;
7605;SDS011;3844;53.360;9.738;2022-10-18T08:01:05;33.00;;;14.90;;
7605;SDS011;3844;53.360;9.738;2022-10-18T08:03:06;35.75;;;15.57;;
7605;SDS011;3844;53.360;9.738;2022-10-18T08:05:07;31.25;;;13.98;;
7605;SDS011;3844;53.360;9.738;2022-10-18T08:07:08;28.40;;;12.85;;
7605;SDS011;3844;53.360;9.738;2022-10-18T08:09:08;29.63;;;14.13;;
7605;SDS011;3844;53.360;9.738;2022-10-18T08:11:14;31.70;;;13.93;;
7605;SDS011;3844;53.360;9.738;2022-10-18T08:13:19;31.90;;;14.52;;
7605;SDS011;3844;53.360;9.738;2022-10-18T08:15:20;28.75;;;13.57;;
7605;SDS011;3844;53.360;9.738;2022-10-18T08:17:23;33.20;;;14.23;;
7605;SDS011;3844;53.360;9.738;2022-10-18T08:19:24;29.00;;;12.80;;
7605;SDS011;3844;53.360;9.738;2022-10-18T08:21:25;26.55;;;12.30;;
7605;SDS011;3844;53.360;9.738;2022-10-18T08:23:26;26.23;;;12.40;;
7605;SDS011;3844;53.360;9.738;2022-10-18T08:25:27;25.05;;;11.77;;
7605;SDS011;3844;53.360;9.738;2022-10-18T08:27:28;28.45;;;12.63;;
7605;SDS011;3844;53.360;9.738;2022-10-18T08:29:28;26.33;;;13.18;;
7605;SDS011;3844;53.360;9.738;2022-10-18T08:31:29;24.60;;;11.90;;
7605;SDS011;3844;53.360;9.738;2022-10-18T08:33:30;25.27;;;11.25;;
7605;SDS011;3844;53.360;9.738;2022-10-18T08:35:31;22.65;;;11.68;;
7605;SDS011;3844;53.360;9.738;2022-10-18T08:37:32;27.77;;;12.68;;
7605;SDS011;3844;53.360;9.738;2022-10-18T08:39:34;25.90;;;12.65;;
7605;SDS011;3844;53.360;9.738;2022-10-18T08:44:22;27.67;;;13.02;;
7605;SDS011;3844;53.360;9.738;2022-10-18T08:46:25;26.52;;;12.80;;
7605;SDS011;3844;53.360;9.738;2022-10-18T08:48:34;23.73;;;11.80;;
7605;SDS011;3844;53.360;9.738;2022-10-18T08:50:39;22.25;;;11.38;;
7605;SDS011;3844;53.360;9.738;2022-10-18T08:57:17;26.92;;;11.85;;
7605;SDS011;3844;53.360;9.738;2022-10-18T08:59:18;25.95;;;12.10;;
7605;SDS011;3844;53.360;9.738;2022-10-18T09:17:38;25.60;;;12.13;;
7605;SDS011;3844;53.360;9.738;2022-10-18T09:22:13;25.98;;;12.68;;
7605;SDS011;3844;53.360;9.738;2022-10-18T09:24:20;23.88;;;12.50;;
7605;SDS011;3844;53.360;9.738;2022-10-18T09:26:22;26.05;;;12.50;;
7605;SDS011;3844;53.360;9.738;2022-10-18T09:30:48;24.17;;;11.95;;
7605;SDS011;3844;53.360;9.738;2022-10-18T09:33:01;23.98;;;11.63;;
7605;SDS011;3844;53.360;9.738;2022-10-18T09:35:18;20.23;;;9.90;;
7605;SDS011;3844;53.360;9.738;2022-10-18T09:37:23;18.30;;;9.10;;
7605;SDS011;3844;53.360;9.738;2022-10-18T09:39:30;17.88;;;9.25;;
7605;SDS011;3844;53.360;9.738;2022-10-18T09:41:37;19.25;;;9.27;;
7605;SDS011;3844;53.360;9.738;2022-10-18T09:45:48;17.02;;;8.65;;
7605;SDS011;3844;53.360;9.738;2022-10-18T09:50:19;17.83;;;8.73;;
7605;SDS011;3844;53.360;9.738;2022-10-18T09:52:34;16.02;;;8.93;;
7605;SDS011;3844;53.360;9.738;2022-10-18T09:54:42;18.10;;;8.48;;
7605;SDS011;3844;53.360;9.738;2022-10-18T09:56:49;16.42;;;7.97;;
7605;SDS011;3844;53.360;9.738;2022-10-18T09:58:57;16.45;;;8.23;;
7605;SDS011;3844;53.360;9.738;2022-10-18T10:00:58;16.00;;;8.05;;
7605;SDS011;3844;53.360;9.738;2022-10-18T10:02:59;17.52;;;7.88;;
7605;SDS011;3844;53.360;9.738;2022-10-18T10:05:00;15.23;;;7.28;;
7605;SDS011;3844;53.360;9.738;2022-10-18T10:07:01;17.23;;;8.57;;
7605;SDS011;3844;53.360;9.738;2022-10-18T10:09:17;15.70;;;7.10;;
7605;SDS011;3844;53.360;9.738;2022-10-18T10:11:29;18.70;;;8.70;;
7605;SDS011;3844;53.360;9.738;2022-10-18T10:13:36;18.83;;;7.78;;
7605;SDS011;3844;53.360;9.738;2022-10-18T10:15:36;19.75;;;8.90;;
7605;SDS011;3844;53.360;9.738;2022-10-18T10:17:37;18.70;;;7.88;;
7605;SDS011;3844;53.360;9.738;2022-10-18T10:19:39;17.38;;;8.05;;
7605;SDS011;3844;53.360;9.738;2022-10-18T10:22:16;17.48;;;7.97;;
7605;SDS011;3844;53.360;9.738;2022-10-18T10:24:48;15.98;;;7.40;;
7605;SDS011;3844;53.360;9.738;2022-10-18T10:26:57;17.65;;;7.25;;
7605;SDS011;3844;53.360;9.738;2022-10-18T10:28:59;15.45;;;6.40;;
7605;SDS011;3844;53.360;9.738;2022-10-18T10:33:36;13.55;;;6.55;;
7605;SDS011;3844;53.360;9.738;2022-10-18T10:35:38;14.82;;;6.50;;
7605;SDS011;3844;53.360;9.738;2022-10-18T10:37:40;15.38;;;6.28;;
7605;SDS011;3844;53.360;9.738;2022-10-18T10:39:40;15.10;;;6.00;;
7605;SDS011;3844;53.360;9.738;2022-10-18T10:41:41;13.20;;;5.53;;
7605;SDS011;3844;53.360;9.738;2022-10-18T10:43:42;14.10;;;4.90;;
7605;SDS011;3844;53.360;9.738;2022-10-18T10:46:18;11.35;;;3.65;;
7605;SDS011;3844;53.360;9.738;2022-10-18T10:48:13;13.73;;;4.45;;
7605;SDS011;3844;53.360;9.738;2022-10-18T10:50:21;15.25;;;5.13;;
7605;SDS011;3844;53.360;9.738;2022-10-18T10:52:25;13.45;;;4.30;;
7605;SDS011;3844;53.360;9.738;2022-10-18T10:54:28;13.95;;;4.57;;
7605;SDS011;3844;53.360;9.738;2022-10-18T10:56:35;12.27;;;4.53;;
7605;SDS011;3844;53.360;9.738;2022-10-18T10:58:49;11.63;;;4.43;;
7605;SDS011;3844;53.360;9.738;2022-10-18T11:00:51;12.98;;;4.68;;
7605;SDS011;3844;53.360;9.738;2022-10-18T11:02:52;12.20;;;4.00;;
7605;SDS011;3844;53.360;9.738;2022-10-18T11:07:26;13.00;;;4.30;;
7605;SDS011;3844;53.360;9.738;2022-10-18T11:11:57;14.02;;;4.15;;
7605;SDS011;3844;53.360;9.738;2022-10-18T11:14:22;12.35;;;4.18;;
7605;SDS011;3844;53.360;9.738;2022-10-18T11:16:31;13.18;;;4.25;;
7605;SDS011;3844;53.360;9.738;2022-10-18T11:18:40;11.25;;;4.43;;
7605;SDS011;3844;53.360;9.738;2022-10-18T11:22:51;9.00;;;3.15;;
7605;SDS011;3844;53.360;9.738;2022-10-18T11:24:56;11.10;;;3.60;;
7605;SDS011;3844;53.360;9.738;2022-10-18T11:29:34;12.63;;;3.63;;
7605;SDS011;3844;53.360;9.738;2022-10-18T11:37:12;11.90;;;3.65;;
7605;SDS011;3844;53.360;9.738;2022-10-18T11:39:02;10.93;;;3.03;;
7605;SDS011;3844;53.360;9.738;2022-10-18T11:43:25;8.63;;;3.03;;
7605;SDS011;3844;53.360;9.738;2022-10-18T11:48:09;12.73;;;3.30;;
7605;SDS011;3844;53.360;9.738;2022-10-18T12:04:35;10.90;;;2.80;;
7605;SDS011;3844;53.360;9.738;2022-10-18T12:06:41;10.73;;;2.72;;
7605;SDS011;3844;53.360;9.738;2022-10-18T12:08:49;10.98;;;2.78;;
7605;SDS011;3844;53.360;9.738;2022-10-18T12:10:59;10.57;;;2.50;;
7605;SDS011;3844;53.360;9.738;2022-10-18T12:13:07;11.80;;;2.53;;
7605;SDS011;3844;53.360;9.738;2022-10-18T12:17:29;11.63;;;2.50;;
7605;SDS011;3844;53.360;9.738;2022-10-18T12:19:34;10.73;;;2.20;;
7605;SDS011;3844;53.360;9.738;2022-10-18T12:21:35;10.48;;;2.45;;
7605;SDS011;3844;53.360;9.738;2022-10-18T12:23:40;11.60;;;2.58;;
7605;SDS011;3844;53.360;9.738;2022-10-18T12:25:50;9.40;;;2.03;;
7605;SDS011;3844;53.360;9.738;2022-10-18T12:30:03;11.27;;;2.20;;
7605;SDS011;3844;53.360;9.738;2022-10-18T12:32:24;11.95;;;2.10;;
7605;SDS011;3844;53.360;9.738;2022-10-18T12:34:49;9.05;;;1.90;;
7605;SDS011;3844;53.360;9.738;2022-10-18T12:39:04;12.10;;;2.30;;
7605;SDS011;3844;53.360;9.738;2022-10-18T12:41:17;12.00;;;2.38;;
7605;SDS011;3844;53.360;9.738;2022-10-18T12:43:25;9.77;;;2.17;;
7605;SDS011;3844;53.360;9.738;2022-10-18T12:45:52;9.25;;;1.90;;
7605;SDS011;3844;53.360;9.738;2022-10-18T12:47:59;11.43;;;1.90;;
7605;SDS011;3844;53.360;9.738;2022-10-18T12:50:22;8.68;;;1.83;;
7605;SDS011;3844;53.360;9.738;2022-10-18T12:52:42;7.72;;;1.55;;
7605;SDS011;3844;53.360;9.738;2022-10-18T12:54:50;8.38;;;1.70;;
7605;SDS011;3844;53.360;9.738;2022-10-18T12:57:16;10.98;;;1.60;;
7605;SDS011;3844;53.360;9.738;2022-10-18T13:01:25;9.88;;;1.98;;
7605;SDS011;3844;53.360;9.738;2022-10-18T13:03:53;8.07;;;1.73;;
7605;SDS011;3844;53.360;9.738;2022-10-18T13:05:56;11.25;;;1.83;;
7605;SDS011;3844;53.360;9.738;2022-10-18T13:08:01;11.98;;;1.73;;
7605;SDS011;3844;53.360;9.738;2022-10-18T13:10:31;11.63;;;1.70;;
7605;SDS011;3844;53.360;9.738;2022-10-18T13:17:49;11.88;;;2.05;;
7605;SDS011;3844;53.360;9.738;2022-10-18T13:19:56;10.13;;;1.70;;
7605;SDS011;3844;53.360;9.738;2022-10-18T13:26:46;10.75;;;1.83;;
7605;SDS011;3844;53.360;9.738;2022-10-18T13:33:40;10.35;;;1.70;;
7605;SDS011;3844;53.360;9.738;2022-10-18T13:37:57;8.75;;;1.50;;
7605;SDS011;3844;53.360;9.738;2022-10-18T13:42:30;9.45;;;1.80;;
7605;SDS011;3844;53.360;9.738;2022-10-18T13:44:32;9.40;;;1.90;;
7605;SDS011;3844;53.360;9.738;2022-10-18T13:50:43;12.52;;;2.05;;
7605;SDS011;3844;53.360;9.738;2022-10-18T13:55:01;9.23;;;1.70;;
7605;SDS011;3844;53.360;9.738;2022-10-18T14:04:41;11.60;;;1.98;;
7605;SDS011;3844;53.360;9.738;2022-10-18T14:07:01;11.93;;;2.17;;
7605;SDS011;3844;53.360;9.738;2022-10-18T14:09:22;10.20;;;1.90;;
7605;SDS011;3844;53.360;9.738;2022-10-18T14:11:38;12.77;;;2.00;;
7605;SDS011;3844;53.360;9.738;2022-10-18T14:13:55;10.82;;;2.08;;
7605;SDS011;3844;53.360;9.738;2022-10-18T14:16:24;11.77;;;1.85;;
7605;SDS011;3844;53.360;9.738;2022-10-18T14:18:39;10.25;;;1.83;;
7605;SDS011;3844;53.360;9.738;2022-10-18T14:20:44;11.45;;;2.05;;
7605;SDS011;3844;53.360;9.738;2022-10-18T14:29:20;12.20;;;1.92;;
7605;SDS011;3844;53.360;9.738;2022-10-18T14:31:21;11.43;;;1.88;;
7605;SDS011;3844;53.360;9.738;2022-10-18T14:33:23;11.30;;;1.83;;
7605;SDS011;3844;53.360;9.738;2022-10-18T14:35:32;10.23;;;1.70;;
7605;SDS011;3844;53.360;9.738;2022-10-18T14:37:38;10.10;;;1.60;;
7605;SDS011;3844;53.360;9.738;2022-10-18T14:39:39;9.88;;;1.50;;
7605;SDS011;3844;53.360;9.738;2022-10-18T14:41:51;11.02;;;1.65;;
7605;SDS011;3844;53.360;9.738;2022-10-18T14:43:55;9.55;;;1.60;;
7605;SDS011;3844;53.360;9.738;2022-10-18T14:46:24;10.85;;;1.67;;
7605;SDS011;3844;53.360;9.738;2022-10-18T14:48:26;9.35;;;1.50;;
7605;SDS011;3844;53.360;9.738;2022-10-18T14:50:27;12.23;;;1.67;;
7605;SDS011;3844;53.360;9.738;2022-10-18T14:52:29;10.25;;;1.50;;